Time;durP1;ratioP1;P1;durP2;ratioP2;P2;SDS_P1;SDS_P2;PMS_P1;PMS_P2;Temp;Humidity;BMP_temperature;BMP_pressure;BME280_temperature;BME280_humidity;BME280_pressure;Samples;Min_cycle;Max_cycle;Signal;HPM_P1;HPM_P2
2023/03/06 00:01:00;;;;;;;28.92;13.63;;;11.80;78.10;;;;;;6279219;22;20031;-82
2023/03/06 00:03:26;;;;;;;32.17;12.63;;;11.80;78.90;;;;;;6279940;22;20026;-81
2023/03/06 00:05:55;;;;;;;29.92;14.43;;;11.80;78.50;;;;;;6310907;22;20006;-80
2023/03/06 00:08:21;;;;;;;30.35;13.20;;;11.80;78.60;;;;;;6311624;22;20003;-81
2023/03/06 00:10:47;;;;;;;27.90;12.10;;;11.70;78.40;;;;;;6279704;22;20023;-80
2023/03/06 00:13:14;;;;;;;26.77;13.55;;;11.70;78.60;;;;;;6307297;22;19999;-80
2023/03/06 00:15:40;;;;;;;32.72;13.80;;;11.70;78.60;;;;;;6307531;22;20027;-81
2023/03/06 00:18:07;;;;;;;35.28;13.82;;;11.70;78.60;;;;;;6307034;22;20026;-80
2023/03/06 00:20:33;;;;;;;30.42;13.45;;;11.60;78.40;;;;;;6268248;22;20014;-79
2023/03/06 00:22:59;;;;;;;25.42;13.15;;;11.60;78.50;;;;;;6327959;22;20011;-80
2023/03/06 00:25:25;;;;;;;30.67;13.68;;;11.70;78.60;;;;;;6324481;22;19996;-80
2023/03/06 00:27:51;;;;;;;31.25;13.50;;;11.70;78.50;;;;;;6313422;22;19999;-81
2023/03/06 00:30:20;;;;;;;27.80;13.02;;;11.70;78.60;;;;;;6328005;22;19991;-81
2023/03/06 00:32:46;;;;;;;24.55;12.15;;;11.70;78.40;;;;;;6279599;22;20031;-81
2023/03/06 00:35:13;;;;;;;26.77;13.18;;;11.70;78.30;;;;;;6304320;22;20010;-72
2023/03/06 00:37:39;;;;;;;23.75;12.30;;;11.70;78.50;;;;;;6323454;22;20047;-81
2023/03/06 00:40:07;;;;;;;24.88;11.85;;;11.70;78.30;;;;;;6331593;22;19999;-80
2023/03/06 00:42:33;;;;;;;32.03;13.13;;;11.70;78.10;;;;;;6319615;22;20007;-82
2023/03/06 00:44:59;;;;;;;26.35;12.68;;;11.70;77.90;;;;;;6309354;22;20045;-81
2023/03/06 00:47:24;;;;;;;26.40;12.70;;;11.70;78.00;;;;;;6308597;22;20332;-82
2023/03/06 00:49:50;;;;;;;22.17;12.10;;;11.80;77.90;;;;;;6307333;22;19999;-81
2023/03/06 00:52:16;;;;;;;37.28;14.70;;;11.80;77.90;;;;;;6307395;22;20027;-81
2023/03/06 00:54:41;;;;;;;26.17;12.50;;;11.80;77.80;;;;;;6310514;22;20061;-81
2023/03/06 00:57:07;;;;;;;24.05;11.90;;;11.90;77.50;;;;;;6283721;22;20090;-81
2023/03/06 00:59:33;;;;;;;30.13;13.38;;;11.90;77.20;;;;;;6307218;22;19995;-83
2023/03/06 01:01:59;;;;;;;28.63;12.02;;;12.00;77.10;;;;;;6307643;22;20084;-81
2023/03/06 01:04:25;;;;;;;24.63;11.23;;;12.00;77.50;;;;;;6307431;22;19995;-82
2023/03/06 01:06:50;;;;;;;22.30;11.73;;;12.00;77.50;;;;;;6306639;22;20485;-80
2023/03/06 01:09:16;;;;;;;25.13;12.60;;;12.10;77.50;;;;;;6279250;22;20030;-81
2023/03/06 01:11:42;;;;;;;21.42;10.93;;;12.10;77.10;;;;;;6279876;22;20087;-79
2023/03/06 01:14:07;;;;;;;23.13;11.63;;;12.10;77.10;;;;;;6307448;22;20078;-81
2023/03/06 01:16:33;;;;;;;20.52;10.60;;;12.10;77.10;;;;;;6306713;22;20023;-79
2023/03/06 01:18:59;;;;;;;23.63;11.27;;;12.20;77.20;;;;;;6307067;22;20674;-82
2023/03/06 01:21:24;;;;;;;22.92;11.80;;;12.20;77.00;;;;;;6310195;22;20009;-80
2023/03/06 01:23:50;;;;;;;23.52;11.68;;;12.20;77.00;;;;;;6318193;22;20026;-82
2023/03/06 01:26:16;;;;;;;23.75;11.23;;;12.20;77.30;;;;;;6282557;22;20460;-82
2023/03/06 01:28:42;;;;;;;23.60;11.38;;;12.30;77.40;;;;;;6307186;22;20004;-81
2023/03/06 01:31:08;;;;;;;22.15;11.57;;;12.30;77.70;;;;;;6307502;22;20007;-79
2023/03/06 01:33:35;;;;;;;22.33;10.80;;;12.30;78.00;;;;;;6307413;22;19999;-80
2023/03/06 01:36:10;;;;;;;24.42;10.48;;;12.30;77.90;;;;;;6280464;22;20018;-81
2023/03/06 01:38:35;;;;;;;26.27;12.20;;;12.20;78.70;;;;;;6282045;22;20263;-81
2023/03/06 01:41:02;;;;;;;21.45;11.48;;;12.20;78.40;;;;;;6309252;22;20001;-80
2023/03/06 01:43:31;;;;;;;23.70;11.82;;;12.20;78.70;;;;;;6312576;22;20337;-81
2023/03/06 01:46:15;;;;;;;20.65;11.18;;;12.20;78.90;;;;;;6312337;22;20034;-81
2023/03/06 01:48:42;;;;;;;21.38;11.65;;;12.10;79.50;;;;;;6310328;22;20027;-80
2023/03/06 01:51:08;;;;;;;21.33;12.05;;;12.10;79.80;;;;;;6310335;22;20003;-81
2023/03/06 01:53:35;;;;;;;26.20;11.50;;;12.00;80.20;;;;;;6308694;22;19999;-81
2023/03/06 01:56:01;;;;;;;21.08;11.43;;;12.00;80.60;;;;;;6308553;22;20061;-82
2023/03/06 01:58:27;;;;;;;22.40;11.00;;;12.00;80.70;;;;;;6308212;22;20007;-81
2023/03/06 02:00:53;;;;;;;21.88;10.75;;;11.90;80.70;;;;;;6308046;22;20016;-81
2023/03/06 02:03:21;;;;;;;19.65;10.90;;;11.90;81.00;;;;;;6308462;22;20462;-81
2023/03/06 02:05:47;;;;;;;21.15;10.68;;;11.80;81.40;;;;;;6280929;22;20025;-81
2023/03/06 02:08:16;;;;;;;20.88;10.88;;;11.80;81.50;;;;;;6308369;22;20003;-81
2023/03/06 02:11:01;;;;;;;21.80;10.88;;;11.70;81.70;;;;;;6308192;22;20018;-81
2023/03/06 02:13:28;;;;;;;25.00;10.13;;;11.70;81.60;;;;;;6310162;22;20003;-82
2023/03/06 02:15:54;;;;;;;22.42;10.18;;;11.70;81.80;;;;;;6310982;22;19995;-81
2023/03/06 02:18:20;;;;;;;20.45;10.18;;;11.70;81.80;;;;;;6309720;22;20009;-81
2023/03/06 02:20:54;;;;;;;17.48;10.43;;;11.80;81.90;;;;;;6331702;22;19990;-81
2023/03/06 02:23:42;;;;;;;25.40;10.13;;;11.80;81.50;;;;;;6325684;22;20087;-80
2023/03/06 02:26:09;;;;;;;20.90;10.48;;;11.80;81.80;;;;;;6309275;22;19999;-80
2023/03/06 02:28:35;;;;;;;19.40;9.63;;;11.90;81.80;;;;;;6286250;22;20464;-80
2023/03/06 02:31:00;;;;;;;19.73;9.63;;;11.90;81.70;;;;;;6290321;22;20007;-80
2023/03/06 02:33:28;;;;;;;20.35;10.02;;;11.90;81.50;;;;;;6316701;22;20026;-81
2023/03/06 02:36:03;;;;;;;19.60;8.93;;;12.00;81.50;;;;;;6310769;22;19995;-80
2023/03/06 02:38:52;;;;;;;16.27;8.85;;;12.00;81.20;;;;;;6308269;22;20003;-81
2023/03/06 02:41:18;;;;;;;23.67;10.63;;;12.10;81.30;;;;;;6279374;22;20015;-80
2023/03/06 02:43:46;;;;;;;18.88;9.32;;;12.10;81.10;;;;;;6308468;22;20317;-79
2023/03/06 02:46:12;;;;;;;17.60;9.05;;;12.10;81.20;;;;;;6309352;22;20049;-80
2023/03/06 02:48:37;;;;;;;18.75;8.75;;;12.10;81.30;;;;;;6308904;22;20077;-80
2023/03/06 02:51:03;;;;;;;16.85;9.15;;;12.10;81.20;;;;;;6309001;22;19999;-81
2023/03/06 02:53:29;;;;;;;19.58;9.75;;;12.10;81.30;;;;;;6307924;22;20069;-81
2023/03/06 02:55:54;;;;;;;21.60;9.35;;;12.20;81.40;;;;;;6282991;22;19999;-80
2023/03/06 02:58:20;;;;;;;16.05;8.75;;;12.20;81.30;;;;;;6313994;22;20173;-80
2023/03/06 03:00:47;;;;;;;19.73;8.90;;;12.20;81.30;;;;;;6307693;22;20345;-80
2023/03/06 03:03:13;;;;;;;18.02;9.30;;;12.20;81.30;;;;;;6307998;22;20026;-79
2023/03/06 03:05:39;;;;;;;19.20;8.25;;;12.20;81.30;;;;;;6307701;22;19999;-81
2023/03/06 03:08:05;;;;;;;18.58;8.30;;;12.10;81.40;;;;;;6280561;22;20095;-79
2023/03/06 03:10:30;;;;;;;21.27;8.80;;;12.10;81.40;;;;;;6307816;22;20049;-80
2023/03/06 03:12:57;;;;;;;19.40;8.20;;;12.10;81.50;;;;;;6280165;22;20069;-80
2023/03/06 03:15:23;;;;;;;26.83;9.80;;;12.10;81.60;;;;;;6307298;22;20079;-81
2023/03/06 03:17:49;;;;;;;19.55;8.43;;;12.10;81.60;;;;;;6307466;22;20003;-81
2023/03/06 03:20:19;;;;;;;22.17;8.63;;;12.10;81.70;;;;;;6311798;22;20042;-80
2023/03/06 03:22:54;;;;;;;19.38;8.48;;;12.10;81.80;;;;;;6280524;22;20475;-80
2023/03/06 03:25:22;;;;;;;20.45;8.18;;;12.10;81.70;;;;;;6285041;22;20004;-81
2023/03/06 03:27:48;;;;;;;21.88;8.07;;;12.10;81.50;;;;;;6308061;22;20003;-76
2023/03/06 03:30:14;;;;;;;19.13;8.73;;;12.10;81.50;;;;;;6307827;22;20494;-80
2023/03/06 03:32:40;;;;;;;20.58;7.75;;;12.20;81.60;;;;;;6307841;22;20354;-79
2023/03/06 03:35:07;;;;;;;18.80;8.85;;;12.20;81.40;;;;;;6280283;22;19999;-80
2023/03/06 03:37:33;;;;;;;16.70;7.70;;;12.20;81.50;;;;;;6307628;22;19999;-80
2023/03/06 03:39:59;;;;;;;19.23;7.72;;;12.20;81.20;;;;;;6307601;22;20033;-79
2023/03/06 03:42:25;;;;;;;20.50;8.32;;;12.20;81.10;;;;;;6307344;22;20011;-78
2023/03/06 03:44:51;;;;;;;19.77;8.52;;;12.20;81.00;;;;;;6307710;22;20031;-81
2023/03/06 03:47:16;;;;;;;17.90;8.00;;;12.20;81.10;;;;;;6307728;22;20007;-80
2023/03/06 03:49:42;;;;;;;18.45;7.15;;;12.20;81.00;;;;;;6307404;22;19996;-80
2023/03/06 03:52:08;;;;;;;25.58;8.18;;;12.20;80.80;;;;;;6280245;22;20034;-80
2023/03/06 03:54:34;;;;;;;17.27;8.32;;;12.20;80.60;;;;;;6310607;22;19995;-80
2023/03/06 03:56:59;;;;;;;19.42;7.32;;;12.20;80.80;;;;;;6313449;22;20005;-79
2023/03/06 03:59:25;;;;;;;19.58;7.65;;;12.20;80.70;;;;;;6311766;22;20049;-80
2023/03/06 04:01:51;;;;;;;17.90;7.05;;;12.20;80.80;;;;;;6311185;22;20019;-81
2023/03/06 04:04:17;;;;;;;18.35;7.78;;;12.20;80.90;;;;;;6310400;22;19996;-80
2023/03/06 04:06:42;;;;;;;16.35;7.72;;;12.20;80.70;;;;;;6309411;22;20046;-80
2023/03/06 04:09:08;;;;;;;16.55;7.45;;;12.20;80.80;;;;;;6308303;22;20037;-81
2023/03/06 04:11:34;;;;;;;13.63;6.97;;;12.30;80.90;;;;;;6312288;22;20006;-79
2023/03/06 04:13:59;;;;;;;18.92;8.00;;;12.20;80.80;;;;;;6309185;22;20448;-81
2023/03/06 04:16:25;;;;;;;16.95;6.97;;;12.30;80.80;;;;;;6307375;22;20007;-80
2023/03/06 04:18:51;;;;;;;17.63;7.88;;;12.30;80.80;;;;;;6308065;22;20364;-80
2023/03/06 04:21:17;;;;;;;17.98;7.68;;;12.30;80.80;;;;;;6314644;22;20003;-79
2023/03/06 04:23:42;;;;;;;18.52;7.60;;;12.30;80.70;;;;;;6279971;22;20011;-80
2023/03/06 04:26:08;;;;;;;18.42;7.68;;;12.30;80.80;;;;;;6307168;22;19999;-78
2023/03/06 04:28:34;;;;;;;14.90;7.03;;;12.40;80.90;;;;;;6307633;22;20549;-80
2023/03/06 04:31:00;;;;;;;18.70;7.53;;;12.30;80.90;;;;;;6307150;22;19995;-80
2023/03/06 04:33:26;;;;;;;20.38;7.22;;;12.40;81.00;;;;;;6306967;22;20025;-79
2023/03/06 04:35:51;;;;;;;19.40;7.55;;;12.30;80.80;;;;;;6307131;22;20003;-79
2023/03/06 04:38:17;;;;;;;16.45;6.75;;;12.30;80.80;;;;;;6279864;22;20346;-79
2023/03/06 04:40:43;;;;;;;19.58;7.18;;;12.30;81.00;;;;;;6307054;22;20045;-78
2023/03/06 04:43:09;;;;;;;16.92;7.22;;;12.30;80.90;;;;;;6306869;22;20011;-80
2023/03/06 04:45:35;;;;;;;17.27;7.05;;;12.30;81.10;;;;;;6307152;22;19996;-80
2023/03/06 04:48:01;;;;;;;19.95;7.00;;;12.30;81.20;;;;;;6306776;22;20074;-80
2023/03/06 04:50:31;;;;;;;19.15;7.18;;;12.30;81.20;;;;;;6307039;22;19999;-78
2023/03/06 04:52:59;;;;;;;13.45;6.07;;;12.30;81.20;;;;;;6307108;22;19999;-79
2023/03/06 04:55:25;;;;;;;13.57;6.25;;;12.30;81.40;;;;;;6306601;22;19999;-79
2023/03/06 04:57:50;;;;;;;13.55;6.38;;;12.20;81.40;;;;;;6306921;22;20034;-79
2023/03/06 05:00:19;;;;;;;15.98;6.53;;;12.20;81.50;;;;;;6309942;22;19995;-78
2023/03/06 05:02:45;;;;;;;16.42;6.60;;;12.20;81.60;;;;;;6309924;22;20011;-80
2023/03/06 05:05:12;;;;;;;15.43;6.20;;;12.10;81.80;;;;;;6307114;22;20334;-80
2023/03/06 05:07:38;;;;;;;15.80;6.00;;;12.10;82.20;;;;;;6279421;22;20364;-77
2023/03/06 05:10:05;;;;;;;16.60;6.32;;;12.10;82.50;;;;;;6306949;22;19999;-79
2023/03/06 05:12:35;;;;;;;15.65;5.95;;;12.00;82.00;;;;;;6281178;22;20452;-80
2023/03/06 05:15:00;;;;;;;15.60;6.55;;;12.00;82.80;;;;;;6309452;22;20007;-80
2023/03/06 05:17:26;;;;;;;17.70;7.28;;;11.90;82.60;;;;;;6309058;22;20306;-79
2023/03/06 05:19:52;;;;;;;15.77;6.60;;;11.90;82.80;;;;;;6309187;22;20003;-79
2023/03/06 05:22:18;;;;;;;14.70;6.47;;;11.90;83.00;;;;;;6308883;22;20011;-80
2023/03/06 05:24:43;;;;;;;17.30;6.72;;;11.90;83.20;;;;;;6309236;22;20007;-80
2023/03/06 05:27:09;;;;;;;16.40;6.43;;;11.80;83.10;;;;;;6310474;22;20007;-79
2023/03/06 05:29:35;;;;;;;18.95;6.18;;;11.80;83.10;;;;;;6310645;22;19995;-79
2023/03/06 05:32:00;;;;;;;15.80;5.70;;;11.80;83.40;;;;;;6308929;22;20062;-80
2023/03/06 05:34:26;;;;;;;14.15;5.57;;;11.80;83.40;;;;;;6308988;22;20020;-80
2023/03/06 05:36:51;;;;;;;18.45;6.68;;;11.80;83.50;;;;;;6281321;22;20340;-80
2023/03/06 05:39:17;;;;;;;15.90;6.63;;;11.80;83.40;;;;;;6308643;22;20327;-80
2023/03/06 05:41:43;;;;;;;16.10;5.90;;;11.90;83.50;;;;;;6308681;22;20329;-80
2023/03/06 05:44:09;;;;;;;20.35;6.90;;;11.90;83.50;;;;;;6311166;22;20083;-77
2023/03/06 05:46:34;;;;;;;14.85;5.35;;;12.00;83.70;;;;;;6315825;22;20047;-80
2023/03/06 05:49:00;;;;;;;16.23;5.65;;;12.00;83.10;;;;;;6313355;22;20364;-80
2023/03/06 05:51:26;;;;;;;16.70;5.97;;;12.10;83.00;;;;;;6311091;22;19999;-81
2023/03/06 05:53:52;;;;;;;13.75;5.25;;;12.10;82.80;;;;;;6309002;22;20006;-79
2023/03/06 05:56:18;;;;;;;16.70;6.18;;;12.10;82.90;;;;;;6309228;22;19999;-80
2023/03/06 05:58:43;;;;;;;15.77;5.68;;;12.10;82.70;;;;;;6308434;22;20333;-80
2023/03/06 06:01:17;;;;;;;17.73;6.30;;;12.20;82.70;;;;;;6308469;22;20011;-82
2023/03/06 06:03:44;;;;;;;14.48;6.30;;;12.20;82.40;;;;;;6308684;22;20007;-79
2023/03/06 06:06:12;;;;;;;18.35;6.55;;;12.20;82.60;;;;;;6312507;22;20451;-78
2023/03/06 06:08:37;;;;;;;14.23;6.32;;;12.20;82.40;;;;;;6307944;22;20376;-80
2023/03/06 06:11:04;;;;;;;18.85;6.55;;;12.20;82.40;;;;;;6308447;22;20014;-81
2023/03/06 06:13:31;;;;;;;14.20;6.68;;;12.30;82.50;;;;;;6308601;22;20004;-80
2023/03/06 06:15:56;;;;;;;16.98;6.13;;;12.30;82.30;;;;;;6309348;22;20034;-81
2023/03/06 06:18:22;;;;;;;16.55;6.40;;;12.30;82.10;;;;;;6308715;22;20425;-82
2023/03/06 06:20:48;;;;;;;14.38;5.60;;;12.30;82.10;;;;;;6309490;22;19995;-80
2023/03/06 06:23:14;;;;;;;14.85;5.60;;;12.30;82.20;;;;;;6308287;22;20061;-82
2023/03/06 06:25:40;;;;;;;13.13;6.07;;;12.30;82.10;;;;;;6314039;22;20081;-82
2023/03/06 06:28:06;;;;;;;19.42;6.03;;;12.40;82.20;;;;;;6318977;22;19999;-80
2023/03/06 06:30:32;;;;;;;12.60;5.75;;;12.40;82.00;;;;;;6330710;22;19995;-81
2023/03/06 06:32:58;;;;;;;20.00;5.80;;;12.40;81.90;;;;;;6332035;22;20003;-81
2023/03/06 06:35:25;;;;;;;13.77;5.20;;;12.40;81.90;;;;;;6332098;22;19987;-81
2023/03/06 06:37:51;;;;;;;16.80;5.65;;;12.50;81.90;;;;;;6306542;22;20014;-80
2023/03/06 06:40:17;;;;;;;17.38;5.88;;;12.50;81.60;;;;;;6322261;22;19999;-82
2023/03/06 06:42:45;;;;;;;15.38;5.25;;;12.50;81.60;;;;;;6312157;22;20026;-81
2023/03/06 06:45:11;;;;;;;15.18;5.47;;;12.50;81.60;;;;;;6286012;22;19999;-80
2023/03/06 06:47:40;;;;;;;18.77;5.72;;;12.50;81.40;;;;;;6309951;22;20341;-81
2023/03/06 06:50:07;;;;;;;16.60;5.38;;;12.60;81.40;;;;;;6309808;22;20003;-80
2023/03/06 06:52:33;;;;;;;16.38;5.53;;;12.60;81.30;;;;;;6311416;22;20010;-74
2023/03/06 06:54:59;;;;;;;15.30;4.80;;;12.60;81.40;;;;;;6313221;22;20058;-81
2023/03/06 06:57:25;;;;;;;21.83;6.25;;;12.70;81.40;;;;;;6310192;22;20404;-81
2023/03/06 06:59:50;;;;;;;11.80;5.20;;;12.70;81.20;;;;;;6308917;22;19999;-80
2023/03/06 07:02:16;;;;;;;17.95;5.75;;;12.70;81.20;;;;;;6308476;22;20025;-80
2023/03/06 07:04:43;;;;;;;16.10;5.00;;;12.70;81.10;;;;;;6284237;22;20035;-80
2023/03/06 07:07:08;;;;;;;16.77;6.32;;;12.80;81.30;;;;;;6298034;22;20031;-81
2023/03/06 07:09:34;;;;;;;14.02;5.57;;;12.80;81.10;;;;;;6308923;22;20391;-81
2023/03/06 07:12:00;;;;;;;19.42;5.85;;;12.80;81.00;;;;;;6308779;22;20007;-79
2023/03/06 07:14:26;;;;;;;13.45;5.88;;;12.90;80.90;;;;;;6308632;22;20082;-83
2023/03/06 07:16:51;;;;;;;19.17;6.18;;;13.00;80.70;;;;;;6308285;22;20041;-81
2023/03/06 07:19:17;;;;;;;21.88;6.20;;;13.00;80.40;;;;;;6308071;22;20088;-81
2023/03/06 07:21:43;;;;;;;15.00;5.65;;;13.10;80.20;;;;;;6281134;22;20097;-81
2023/03/06 07:24:09;;;;;;;15.63;5.53;;;13.10;80.00;;;;;;6312288;22;20007;-82
2023/03/06 07:26:34;;;;;;;12.60;6.53;;;13.10;79.60;;;;;;6284306;22;20086;-80
2023/03/06 07:29:00;;;;;;;17.00;6.43;;;13.20;79.60;;;;;;6310190;22;20076;-82
2023/03/06 07:31:27;;;;;;;13.10;5.47;;;13.20;79.60;;;;;;6309085;22;19999;-80
2023/03/06 07:33:54;;;;;;;15.50;5.95;;;13.20;79.60;;;;;;6307833;22;19995;-79
2023/03/06 07:36:21;;;;;;;16.33;6.47;;;13.20;79.50;;;;;;6280888;22;20003;-81
2023/03/06 07:38:47;;;;;;;19.52;5.88;;;13.30;79.60;;;;;;6308999;22;20447;-81
2023/03/06 07:41:15;;;;;;;17.42;5.80;;;13.30;79.30;;;;;;6308704;22;20003;-80
2023/03/06 07:43:42;;;;;;;17.30;5.63;;;13.40;79.30;;;;;;6308020;22;20003;-80
2023/03/06 07:46:08;;;;;;;16.90;5.80;;;13.40;79.10;;;;;;6308271;22;20003;-80
2023/03/06 07:48:35;;;;;;;16.02;5.97;;;13.50;79.10;;;;;;6308231;22;20555;-80
2023/03/06 07:51:04;;;;;;;20.98;6.45;;;13.50;78.90;;;;;;6280881;22;20011;-80
2023/03/06 07:53:30;;;;;;;14.85;5.65;;;13.60;79.00;;;;;;6280821;22;20337;-79
2023/03/06 07:55:56;;;;;;;16.92;7.00;;;13.70;79.10;;;;;;6308970;22;20009;-80
2023/03/06 07:58:22;;;;;;;16.60;6.22;;;13.70;78.80;;;;;;6308027;22;20003;-81
2023/03/06 08:00:48;;;;;;;21.23;6.22;;;13.80;78.90;;;;;;6308505;22;20011;-81
2023/03/06 08:03:14;;;;;;;16.77;6.00;;;13.80;78.70;;;;;;6310091;22;20015;-82
2023/03/06 08:05:43;;;;;;;15.45;5.90;;;13.80;78.60;;;;;;6310527;22;20019;-81
2023/03/06 08:08:08;;;;;;;16.75;5.60;;;13.80;78.70;;;;;;6311727;22;20007;-81
2023/03/06 08:10:34;;;;;;;13.85;5.28;;;13.80;78.80;;;;;;6312856;22;20052;-81
2023/03/06 08:13:00;;;;;;;18.95;6.25;;;13.80;78.80;;;;;;6311235;22;19999;-82
2023/03/06 08:15:25;;;;;;;14.88;5.35;;;13.80;78.70;;;;;;6310067;22;20026;-82
2023/03/06 08:17:51;;;;;;;14.45;5.43;;;13.90;78.80;;;;;;6309420;22;20340;-80
2023/03/06 08:20:17;;;;;;;13.15;4.40;;;13.90;78.60;;;;;;6309450;22;20057;-82
2023/03/06 08:22:43;;;;;;;11.75;4.20;;;13.90;78.40;;;;;;6280367;22;20039;-82
2023/03/06 08:25:12;;;;;;;10.65;3.55;;;14.00;78.30;;;;;;6308062;22;20003;-83
2023/03/06 08:27:38;;;;;;;12.80;3.92;;;14.00;77.70;;;;;;6312556;22;20325;-81
2023/03/06 08:30:06;;;;;;;11.07;3.90;;;14.10;77.70;;;;;;6309364;22;19999;-82
2023/03/06 08:32:35;;;;;;;18.08;4.43;;;14.20;77.40;;;;;;6280672;22;20069;-81
2023/03/06 08:35:02;;;;;;;10.32;3.28;;;14.20;77.00;;;;;;6308301;22;20003;-82
2023/03/06 08:37:28;;;;;;;15.90;3.80;;;14.30;76.70;;;;;;6308404;22;20509;-80
2023/03/06 08:39:53;;;;;;;11.13;3.70;;;14.30;76.50;;;;;;6307932;22;20071;-81
2023/03/06 08:42:19;;;;;;;10.82;4.32;;;14.40;76.40;;;;;;6307823;22;20008;-83
2023/03/06 08:44:45;;;;;;;15.05;3.88;;;14.50;76.10;;;;;;6280248;22;20053;-81
2023/03/06 08:47:11;;;;;;;11.63;3.40;;;14.60;75.70;;;;;;6310190;22;20000;-81
2023/03/06 08:49:38;;;;;;;11.45;3.20;;;14.70;75.30;;;;;;6310549;22;20077;-81
2023/03/06 08:52:07;;;;;;;12.48;3.33;;;14.70;75.00;;;;;;6310859;22;20329;-82
2023/03/06 08:54:36;;;;;;;10.63;3.70;;;14.60;74.50;;;;;;6310279;22;20003;-81
2023/03/06 08:57:02;;;;;;;13.15;3.40;;;14.70;74.50;;;;;;6312909;22;19995;-80
2023/03/06 08:59:27;;;;;;;10.48;3.53;;;14.70;74.30;;;;;;6313985;22;19999;-82
2023/03/06 09:01:53;;;;;;;9.38;3.03;;;14.70;73.80;;;;;;6310162;22;20050;-80
2023/03/06 09:04:19;;;;;;;11.35;3.88;;;14.70;73.70;;;;;;6309843;22;20087;-80
2023/03/06 09:06:45;;;;;;;14.98;3.33;;;14.70;73.40;;;;;;6310117;22;20135;-81
2023/03/06 09:09:11;;;;;;;8.27;2.92;;;14.70;73.20;;;;;;6309865;22;20070;-81
2023/03/06 09:11:38;;;;;;;11.02;3.13;;;14.80;73.10;;;;;;6309617;22;19995;-80
2023/03/06 09:14:04;;;;;;;15.20;4.07;;;14.70;72.70;;;;;;6309639;22;20059;-82
2023/03/06 09:16:31;;;;;;;7.78;2.50;;;14.70;72.60;;;;;;6312255;22;20025;-80
2023/03/06 09:18:57;;;;;;;7.22;2.35;;;14.70;72.80;;;;;;6311215;22;20120;-81
2023/03/06 09:21:24;;;;;;;9.43;2.72;;;14.80;72.30;;;;;;6312047;22;19995;-81
2023/03/06 09:23:50;;;;;;;10.20;3.67;;;14.90;72.00;;;;;;6322464;22;20004;-81
2023/03/06 09:26:16;;;;;;;9.50;3.33;;;15.10;71.80;;;;;;6317780;22;20373;-81
2023/03/06 09:28:42;;;;;;;8.45;2.42;;;15.20;71.40;;;;;;6313572;22;20007;-80
2023/03/06 09:31:13;;;;;;;9.38;3.08;;;15.30;71.00;;;;;;6310468;22;19997;-81
2023/03/06 09:33:39;;;;;;;12.43;3.25;;;15.50;70.40;;;;;;6282221;22;20011;-81
2023/03/06 09:36:07;;;;;;;14.10;3.17;;;15.60;69.50;;;;;;6284107;22;20414;-82
2023/03/06 09:38:32;;;;;;;7.82;2.15;;;15.70;68.40;;;;;;6312402;22;20048;-82
2023/03/06 09:41:14;;;;;;;10.45;2.80;;;15.70;67.60;;;;;;6311795;22;20003;-84
2023/03/06 09:43:47;;;;;;;11.88;3.55;;;15.60;66.60;;;;;;6312878;22;20011;-82
2023/03/06 09:46:31;;;;;;;8.68;2.13;;;15.50;65.80;;;;;;6321155;22;19995;-82
2023/03/06 09:49:16;;;;;;;10.00;2.30;;;15.40;66.50;;;;;;6325995;22;20328;-81
2023/03/06 09:51:56;;;;;;;9.63;1.60;;;15.30;65.20;;;;;;6309406;22;20007;-82
2023/03/06 09:54:33;;;;;;;4.47;1.83;;;15.10;65.40;;;;;;6308734;22;20297;-81
2023/03/06 09:56:59;;;;;;;7.75;1.98;;;14.90;63.50;;;;;;6308211;22;20034;-83
2023/03/06 09:59:26;;;;;;;10.45;2.17;;;14.80;63.00;;;;;;6309431;22;20074;-81
2023/03/06 10:02:12;;;;;;;8.13;2.45;;;14.90;62.80;;;;;;6308679;22;20042;-81
2023/03/06 10:04:43;;;;;;;8.75;3.03;;;15.00;63.60;;;;;;6309364;22;20006;-80
2023/03/06 10:07:17;;;;;;;12.57;4.68;;;15.10;63.60;;;;;;6322674;22;19999;-82
2023/03/06 10:10:00;;;;;;;7.72;2.80;;;15.20;63.90;;;;;;6309561;22;20048;-81
2023/03/06 10:12:31;;;;;;;11.55;3.80;;;15.20;64.80;;;;;;6310081;22;20132;-82
2023/03/06 10:15:02;;;;;;;9.48;2.50;;;15.20;64.40;;;;;;6308975;22;20018;-81
2023/03/06 10:17:35;;;;;;;7.38;2.10;;;15.30;65.60;;;;;;6309096;22;20003;-82
2023/03/06 10:20:07;;;;;;;7.90;2.80;;;15.30;65.00;;;;;;6282535;22;20004;-82
2023/03/06 10:23:02;;;;;;;8.93;2.75;;;15.20;65.50;;;;;;6309085;22;20011;-81
2023/03/06 10:25:59;;;;;;;6.47;2.10;;;15.20;66.20;;;;;;6308463;22;20019;-81
2023/03/06 10:28:37;;;;;;;6.47;2.20;;;15.10;65.70;;;;;;6297931;22;20010;-83
2023/03/06 10:31:17;;;;;;;8.25;2.20;;;15.20;65.30;;;;;;6309036;22;20000;-81
2023/03/06 10:33:54;;;;;;;5.45;2.10;;;15.20;64.30;;;;;;6313511;22;19996;-82
2023/03/06 10:36:26;;;;;;;5.95;2.50;;;15.30;64.20;;;;;;6286135;22;20039;-80
2023/03/06 10:38:53;;;;;;;7.07;2.10;;;15.30;63.90;;;;;;6309404;22;20057;-80
2023/03/06 10:41:26;;;;;;;9.75;2.38;;;15.30;64.10;;;;;;6309402;22;20024;-80
2023/03/06 10:44:03;;;;;;;5.97;2.15;;;15.30;64.00;;;;;;6309572;22;20007;-80
2023/03/06 10:46:41;;;;;;;15.23;3.65;;;15.40;64.90;;;;;;6308718;22;19995;-81
2023/03/06 10:49:25;;;;;;;7.95;2.40;;;15.50;64.40;;;;;;6308715;22;20025;-82
2023/03/06 10:52:05;;;;;;;8.18;2.05;;;15.50;63.90;;;;;;6308159;22;19996;-80
2023/03/06 10:54:38;;;;;;;7.15;1.90;;;15.50;63.60;;;;;;6280676;22;20334;-81
2023/03/06 10:57:24;;;;;;;9.32;2.25;;;15.50;63.10;;;;;;6308156;22;20003;-82
2023/03/06 10:59:52;;;;;;;11.05;3.47;;;15.50;62.90;;;;;;6307563;22;20042;-81
2023/03/06 11:02:35;;;;;;;6.82;2.65;;;15.60;62.50;;;;;;6308044;22;20019;-83
2023/03/06 11:05:02;;;;;;;7.10;2.78;;;15.60;62.30;;;;;;6308301;22;20004;-81
2023/03/06 11:07:30;;;;;;;8.70;2.33;;;15.80;61.90;;;;;;6307897;22;19999;-80
2023/03/06 11:09:55;;;;;;;6.55;2.08;;;15.90;61.50;;;;;;6308803;22;20031;-81
2023/03/06 11:12:27;;;;;;;5.05;1.67;;;15.80;61.20;;;;;;6311046;22;20378;-81
2023/03/06 11:15:17;;;;;;;9.52;2.50;;;15.80;61.20;;;;;;6309064;22;20053;-82
2023/03/06 11:17:52;;;;;;;10.00;3.45;;;15.90;61.20;;;;;;6309087;22;20015;-82
2023/03/06 11:20:26;;;;;;;6.95;1.83;;;15.90;60.50;;;;;;6312306;22;20003;-81
2023/03/06 11:23:04;;;;;;;5.40;1.98;;;15.90;60.50;;;;;;6312946;22;20011;-81
2023/03/06 11:25:40;;;;;;;10.38;2.05;;;16.00;60.10;;;;;;6311682;22;19999;-81
2023/03/06 11:28:13;;;;;;;13.27;2.80;;;16.20;60.00;;;;;;6308982;22;19999;-81
2023/03/06 11:30:44;;;;;;;8.57;1.98;;;16.30;59.30;;;;;;6307810;22;20017;-82
2023/03/06 11:33:38;;;;;;;7.05;2.35;;;16.40;59.10;;;;;;6308392;22;20011;-82
2023/03/06 11:36:21;;;;;;;6.00;1.90;;;16.30;58.30;;;;;;6296771;22;20007;-82
2023/03/06 11:38:50;;;;;;;7.43;2.40;;;16.30;59.00;;;;;;6318852;22;20082;-80
2023/03/06 11:41:58;;;;;;;9.60;2.05;;;16.20;59.40;;;;;;5081857;28;20383;-82
2023/03/06 11:44:38;;;;;;;6.72;2.33;;;16.20;59.10;;;;;;5080097;28;20020;-82
2023/03/06 11:47:08;;;;;;;7.80;2.47;;;16.20;59.30;;;;;;5085685;28;20104;-82
2023/03/06 11:49:54;;;;;;;5.20;2.40;;;16.30;59.10;;;;;;5075604;28;20021;-82
2023/03/06 11:52:32;;;;;;;7.68;2.25;;;16.30;58.70;;;;;;5071308;28;20488;-83
2023/03/06 11:54:58;;;;;;;6.68;2.40;;;16.50;57.80;;;;;;5071120;28;20028;-80
2023/03/06 11:57:59;;;;;;;9.02;2.10;;;16.70;57.10;;;;;;5070152;28;20071;-82
2023/03/06 12:00:43;;;;;;;11.23;3.25;;;16.90;56.40;;;;;;5070179;28;20183;-82
2023/03/06 12:03:37;;;;;;;6.80;2.22;;;17.20;54.80;;;;;;5070163;28;20021;-84
2023/03/06 12:06:31;;;;;;;8.93;2.08;;;17.40;55.50;;;;;;5070302;28;20025;-82
2023/03/06 12:09:10;;;;;;;7.30;2.20;;;17.40;54.70;;;;;;5064883;28;20032;-83
2023/03/06 12:12:12;;;;;;;7.40;2.05;;;17.40;54.90;;;;;;5073945;28;20119;-83
2023/03/06 12:14:41;;;;;;;7.07;2.47;;;17.40;54.00;;;;;;5070317;28;20033;-83
2023/03/06 12:17:06;;;;;;;5.07;2.40;;;17.40;53.90;;;;;;5070188;28;20203;-81
2023/03/06 12:20:05;;;;;;;14.48;2.50;;;17.40;53.20;;;;;;5069926;28;20100;-82
2023/03/06 12:22:47;;;;;;;8.88;2.60;;;17.50;53.90;;;;;;5051106;28;20473;-83
2023/03/06 12:25:18;;;;;;;3.75;1.95;;;17.50;54.40;;;;;;5070500;28;20021;-82
2023/03/06 12:27:52;;;;;;;5.90;2.28;;;17.50;54.10;;;;;;5070161;28;20029;-83
2023/03/06 12:30:26;;;;;;;7.38;2.50;;;17.60;52.90;;;;;;5070254;28;20047;-83
2023/03/06 12:33:15;;;;;;;7.35;2.30;;;17.70;53.30;;;;;;5071301;28;20021;-82
2023/03/06 12:36:16;;;;;;;8.90;2.67;;;17.70;52.20;;;;;;5066941;28;20044;-83
2023/03/06 12:38:45;;;;;;;11.98;2.53;;;17.70;51.90;;;;;;5069312;28;20036;-83
2023/03/06 12:41:19;;;;;;;9.02;2.50;;;17.70;52.30;;;;;;5070206;28;20049;-82
2023/03/06 12:44:11;;;;;;;8.40;2.67;;;17.80;52.50;;;;;;5071136;28;20082;-81
2023/03/06 12:46:48;;;;;;;7.57;2.58;;;17.80;51.50;;;;;;5076443;28;20041;-82
2023/03/06 12:49:21;;;;;;;8.80;2.63;;;17.80;51.70;;;;;;5069453;28;20068;-84